TimePST,TemperatureF,Dew PointF,Humidity,Sea Level PressureIn,VisibilityMPH,Wind Direction,Wind SpeedMPH,Gust SpeedMPH,PrecipitationIn,Events,Conditions,WindDirDegrees,DateUTC
12:53 AM,41.0,34.0,76,29.77,10.0,WSW,16.1,28.8,0.00,,Overcast,250,2014-02-08 08:53:00
1:53 AM,42.1,33.1,70,29.79,10.0,SW,16.1,-,0.00,,Mostly Cloudy,230,2014-02-08 09:53:00
2:53 AM,41.0,32.0,70,29.84,10.0,SSW,5.8,-,N/A,,Overcast,200,2014-02-08 10:53:00
3:53 AM,39.9,32.0,73,29.85,10.0,Calm,Calm,-,N/A,,Overcast,0,2014-02-08 11:53:00
4:53 AM,42.1,30.9,65,29.86,10.0,South,11.5,-,N/A,,Overcast,190,2014-02-08 12:53:00
5:53 AM,42.1,30.0,62,29.87,10.0,SSW,5.8,-,N/A,,Overcast,210,2014-02-08 13:53:00
6:53 AM,41.0,30.0,65,29.87,10.0,South,4.6,-,N/A,,Overcast,190,2014-02-08 14:53:00
7:53 AM,39.9,30.9,70,29.87,10.0,South,11.5,-,N/A,,Mostly Cloudy,170,2014-02-08 15:53:00
8:53 AM,42.1,33.1,70,29.86,10.0,SSE,16.1,-,N/A,,Mostly Cloudy,160,2014-02-08 16:53:00
9:53 AM,43.0,33.1,68,29.87,10.0,SE,10.4,-,N/A,,Overcast,140,2014-02-08 17:53:00
10:53 AM,44.1,34.0,68,29.85,10.0,South,16.1,20.7,N/A,,Overcast,170,2014-02-08 18:53:00
11:53 AM,42.1,37.0,82,29.87,10.0,South,13.8,-,0.01,Rain,Light Rain,180,2014-02-08 19:53:00
12:53 PM,42.1,39.0,89,29.87,7.0,SSW,6.9,-,0.03,Rain,Light Rain,200,2014-02-08 20:53:00
1:06 PM,42.1,39.0,89,29.89,8.0,South,4.6,-,0.01,Rain,Light Rain,190,2014-02-08 21:06:00
1:53 PM,42.1,39.0,89,29.85,6.0,South,4.6,-,0.08,Rain,Rain,170,2014-02-08 21:53:00
2:00 PM,41.0,39.0,93,29.87,7.0,South,5.8,-,0.00,Rain,Light Rain,170,2014-02-08 22:00:00
2:53 PM,44.1,41.0,89,29.83,10.0,South,15.0,-,0.04,,Overcast,170,2014-02-08 22:53:00
2:57 PM,43.0,41.0,93,29.85,10.0,South,13.8,-,N/A,,Overcast,170,2014-02-08 22:57:00
3:53 PM,45.0,39.9,82,29.82,10.0,South,12.7,-,N/A,,Overcast,170,2014-02-08 23:53:00
4:53 PM,46.0,39.0,76,29.83,10.0,SSW,13.8,-,N/A,,Mostly Cloudy,210,2014-02-09 00:53:00
5:53 PM,46.0,36.0,68,29.84,10.0,SW,15.0,-,N/A,,Overcast,220,2014-02-09 01:53:00
6:53 PM,43.0,34.0,71,29.87,10.0,SW,8.1,-,N/A,,Partly Cloudy,230,2014-02-09 02:53:00
7:53 PM,44.1,33.1,65,29.90,10.0,WSW,8.1,17.3,N/A,,Partly Cloudy,250,2014-02-09 03:53:00
8:53 PM,39.9,32.0,73,29.92,10.0,ESE,6.9,-,N/A,,Clear,110,2014-02-09 04:53:00
9:53 PM,43.0,30.9,62,29.94,10.0,Variable,5.8,-,N/A,,Partly Cloudy,0,2014-02-09 05:53:00
10:53 PM,37.9,30.9,76,29.95,10.0,WSW,10.4,-,N/A,,Clear,240,2014-02-09 06:53:00
11:53 PM,41.0,30.9,67,29.97,10.0,West,12.7,-,N/A,,Clear,270,2014-02-09 07:53:00